sensor_id;sensor_type;location;lat;lon;timestamp;P1;durP1;ratioP1;P2;durP2;ratioP2
20908;SDS011;10614;53.198;6.570;2023-07-31T00:01:02;9.10;;;6.38;;
20908;SDS011;10614;53.198;6.570;2023-07-31T00:03:05;8.82;;;7.18;;
20908;SDS011;10614;53.198;6.570;2023-07-31T00:05:08;8.80;;;6.22;;
20908;SDS011;10614;53.198;6.570;2023-07-31T00:07:10;8.70;;;6.18;;
20908;SDS011;10614;53.198;6.570;2023-07-31T00:09:11;8.70;;;6.47;;
20908;SDS011;10614;53.198;6.570;2023-07-31T00:11:15;8.30;;;6.20;;
20908;SDS011;10614;53.198;6.570;2023-07-31T00:13:17;8.45;;;6.45;;
20908;SDS011;10614;53.198;6.570;2023-07-31T00:15:19;7.65;;;6.40;;
20908;SDS011;10614;53.198;6.570;2023-07-31T00:17:20;9.48;;;6.38;;
20908;SDS011;10614;53.198;6.570;2023-07-31T00:19:22;8.20;;;5.55;;
20908;SDS011;10614;53.198;6.570;2023-07-31T00:21:24;8.27;;;5.63;;
20908;SDS011;10614;53.198;6.570;2023-07-31T00:23:26;6.60;;;5.10;;
20908;SDS011;10614;53.198;6.570;2023-07-31T00:25:28;8.05;;;5.10;;
20908;SDS011;10614;53.198;6.570;2023-07-31T00:27:31;6.95;;;5.10;;
20908;SDS011;10614;53.198;6.570;2023-07-31T00:29:34;6.30;;;4.80;;
20908;SDS011;10614;53.198;6.570;2023-07-31T00:31:36;6.13;;;4.40;;
20908;SDS011;10614;53.198;6.570;2023-07-31T00:33:38;9.30;;;4.28;;
20908;SDS011;10614;53.198;6.570;2023-07-31T00:35:39;7.45;;;4.43;;
20908;SDS011;10614;53.198;6.570;2023-07-31T00:37:41;6.07;;;4.57;;
20908;SDS011;10614;53.198;6.570;2023-07-31T00:39:43;5.13;;;4.30;;
20908;SDS011;10614;53.198;6.570;2023-07-31T00:41:44;7.05;;;4.35;;
20908;SDS011;10614;53.198;6.570;2023-07-31T00:43:47;4.85;;;4.07;;
20908;SDS011;10614;53.198;6.570;2023-07-31T00:45:49;5.80;;;4.22;;
20908;SDS011;10614;53.198;6.570;2023-07-31T00:47:51;7.03;;;4.78;;
20908;SDS011;10614;53.198;6.570;2023-07-31T00:49:53;5.53;;;4.50;;
20908;SDS011;10614;53.198;6.570;2023-07-31T00:51:56;7.03;;;4.63;;
20908;SDS011;10614;53.198;6.570;2023-07-31T00:53:58;6.57;;;4.72;;
20908;SDS011;10614;53.198;6.570;2023-07-31T00:56:00;9.23;;;4.85;;
20908;SDS011;10614;53.198;6.570;2023-07-31T00:58:02;6.13;;;4.80;;
20908;SDS011;10614;53.198;6.570;2023-07-31T01:00:06;6.10;;;4.15;;
20908;SDS011;10614;53.198;6.570;2023-07-31T01:02:10;5.53;;;4.32;;
20908;SDS011;10614;53.198;6.570;2023-07-31T01:04:12;8.10;;;4.75;;
20908;SDS011;10614;53.198;6.570;2023-07-31T01:06:15;6.78;;;4.63;;
20908;SDS011;10614;53.198;6.570;2023-07-31T01:08:27;8.13;;;5.05;;
20908;SDS011;10614;53.198;6.570;2023-07-31T01:10:35;6.97;;;5.07;;
20908;SDS011;10614;53.198;6.570;2023-07-31T01:12:42;8.40;;;5.45;;
20908;SDS011;10614;53.198;6.570;2023-07-31T01:15:01;7.93;;;4.90;;
20908;SDS011;10614;53.198;6.570;2023-07-31T01:17:06;6.75;;;4.80;;
20908;SDS011;10614;53.198;6.570;2023-07-31T01:19:08;6.45;;;4.32;;
20908;SDS011;10614;53.198;6.570;2023-07-31T01:21:17;6.95;;;5.07;;
20908;SDS011;10614;53.198;6.570;2023-07-31T01:23:42;6.55;;;4.93;;
20908;SDS011;10614;53.198;6.570;2023-07-31T01:26:02;8.57;;;5.22;;
20908;SDS011;10614;53.198;6.570;2023-07-31T01:28:08;7.82;;;5.60;;
20908;SDS011;10614;53.198;6.570;2023-07-31T01:30:15;7.85;;;5.90;;
20908;SDS011;10614;53.198;6.570;2023-07-31T01:32:19;7.53;;;6.13;;
20908;SDS011;10614;53.198;6.570;2023-07-31T01:34:24;8.52;;;6.10;;
20908;SDS011;10614;53.198;6.570;2023-07-31T01:36:27;9.18;;;6.13;;
20908;SDS011;10614;53.198;6.570;2023-07-31T01:38:32;7.63;;;5.38;;
20908;SDS011;10614;53.198;6.570;2023-07-31T01:40:34;6.53;;;5.22;;
20908;SDS011;10614;53.198;6.570;2023-07-31T01:42:37;7.57;;;5.85;;
20908;SDS011;10614;53.198;6.570;2023-07-31T01:44:39;6.97;;;5.18;;
20908;SDS011;10614;53.198;6.570;2023-07-31T01:46:41;9.48;;;6.25;;
20908;SDS011;10614;53.198;6.570;2023-07-31T01:48:43;6.82;;;5.50;;
20908;SDS011;10614;53.198;6.570;2023-07-31T01:50:45;7.03;;;5.15;;
20908;SDS011;10614;53.198;6.570;2023-07-31T01:52:47;8.25;;;5.45;;
20908;SDS011;10614;53.198;6.570;2023-07-31T01:54:49;5.47;;;4.30;;
20908;SDS011;10614;53.198;6.570;2023-07-31T01:56:50;6.53;;;5.03;;
20908;SDS011;10614;53.198;6.570;2023-07-31T01:58:54;8.00;;;4.20;;
20908;SDS011;10614;53.198;6.570;2023-07-31T02:00:55;5.18;;;3.60;;
20908;SDS011;10614;53.198;6.570;2023-07-31T02:02:59;4.90;;;3.70;;
20908;SDS011;10614;53.198;6.570;2023-07-31T02:05:01;5.05;;;3.83;;
20908;SDS011;10614;53.198;6.570;2023-07-31T02:07:03;4.82;;;3.63;;
20908;SDS011;10614;53.198;6.570;2023-07-31T02:09:05;4.53;;;3.80;;
20908;SDS011;10614;53.198;6.570;2023-07-31T02:11:07;6.05;;;3.65;;
20908;SDS011;10614;53.198;6.570;2023-07-31T02:13:08;4.88;;;3.53;;
20908;SDS011;10614;53.198;6.570;2023-07-31T02:15:12;5.30;;;3.15;;
20908;SDS011;10614;53.198;6.570;2023-07-31T02:17:15;3.50;;;2.58;;
20908;SDS011;10614;53.198;6.570;2023-07-31T02:19:16;4.38;;;2.78;;
20908;SDS011;10614;53.198;6.570;2023-07-31T02:21:18;5.78;;;3.00;;
20908;SDS011;10614;53.198;6.570;2023-07-31T02:23:20;5.03;;;2.95;;
20908;SDS011;10614;53.198;6.570;2023-07-31T02:25:22;3.67;;;2.83;;
20908;SDS011;10614;53.198;6.570;2023-07-31T02:27:24;3.88;;;2.53;;
20908;SDS011;10614;53.198;6.570;2023-07-31T02:29:28;4.43;;;3.00;;
20908;SDS011;10614;53.198;6.570;2023-07-31T02:31:30;4.50;;;3.05;;
20908;SDS011;10614;53.198;6.570;2023-07-31T02:33:32;5.07;;;2.90;;
20908;SDS011;10614;53.198;6.570;2023-07-31T02:35:33;4.60;;;3.15;;
20908;SDS011;10614;53.198;6.570;2023-07-31T02:37:38;4.88;;;3.25;;
20908;SDS011;10614;53.198;6.570;2023-07-31T02:39:39;4.00;;;2.60;;
20908;SDS011;10614;53.198;6.570;2023-07-31T02:41:41;4.95;;;2.72;;
20908;SDS011;10614;53.198;6.570;2023-07-31T02:43:43;3.65;;;2.53;;
20908;SDS011;10614;53.198;6.570;2023-07-31T02:45:45;3.28;;;2.28;;
20908;SDS011;10614;53.198;6.570;2023-07-31T02:47:48;3.72;;;2.90;;
20908;SDS011;10614;53.198;6.570;2023-07-31T02:49:52;3.22;;;2.53;;
20908;SDS011;10614;53.198;6.570;2023-07-31T02:51:56;4.18;;;2.25;;
20908;SDS011;10614;53.198;6.570;2023-07-31T02:53:59;3.60;;;2.65;;
20908;SDS011;10614;53.198;6.570;2023-07-31T02:56:01;3.35;;;2.47;;
20908;SDS011;10614;53.198;6.570;2023-07-31T02:58:04;4.97;;;2.90;;
20908;SDS011;10614;53.198;6.570;2023-07-31T03:00:06;3.72;;;2.28;;
20908;SDS011;10614;53.198;6.570;2023-07-31T03:02:09;3.40;;;2.30;;
20908;SDS011;10614;53.198;6.570;2023-07-31T03:04:12;3.35;;;2.30;;
20908;SDS011;10614;53.198;6.570;2023-07-31T03:06:14;3.85;;;2.50;;
20908;SDS011;10614;53.198;6.570;2023-07-31T03:08:16;3.90;;;2.67;;
20908;SDS011;10614;53.198;6.570;2023-07-31T03:10:18;3.78;;;2.15;;
20908;SDS011;10614;53.198;6.570;2023-07-31T03:12:20;4.95;;;2.78;;
20908;SDS011;10614;53.198;6.570;2023-07-31T03:14:21;3.63;;;2.38;;
20908;SDS011;10614;53.198;6.570;2023-07-31T03:16:22;2.90;;;2.10;;
20908;SDS011;10614;53.198;6.570;2023-07-31T03:18:24;4.85;;;2.60;;
20908;SDS011;10614;53.198;6.570;2023-07-31T03:20:26;3.45;;;2.33;;
20908;SDS011;10614;53.198;6.570;2023-07-31T03:22:28;3.50;;;2.30;;
20908;SDS011;10614;53.198;6.570;2023-07-31T03:24:30;4.38;;;2.30;;
20908;SDS011;10614;53.198;6.570;2023-07-31T03:26:32;2.47;;;1.90;;
20908;SDS011;10614;53.198;6.570;2023-07-31T03:28:34;7.03;;;2.20;;
20908;SDS011;10614;53.198;6.570;2023-07-31T03:30:36;3.15;;;1.92;;
20908;SDS011;10614;53.198;6.570;2023-07-31T03:32:38;3.88;;;1.90;;
20908;SDS011;10614;53.198;6.570;2023-07-31T03:34:40;3.78;;;2.10;;
20908;SDS011;10614;53.198;6.570;2023-07-31T03:36:44;2.83;;;2.00;;
20908;SDS011;10614;53.198;6.570;2023-07-31T03:38:46;3.22;;;2.03;;
20908;SDS011;10614;53.198;6.570;2023-07-31T03:40:48;4.40;;;2.42;;
20908;SDS011;10614;53.198;6.570;2023-07-31T03:42:49;3.47;;;2.13;;
20908;SDS011;10614;53.198;6.570;2023-07-31T03:44:51;3.70;;;2.10;;
20908;SDS011;10614;53.198;6.570;2023-07-31T03:46:54;4.05;;;1.90;;
20908;SDS011;10614;53.198;6.570;2023-07-31T03:48:56;4.25;;;1.98;;
20908;SDS011;10614;53.198;6.570;2023-07-31T03:50:58;6.13;;;2.22;;
20908;SDS011;10614;53.198;6.570;2023-07-31T03:53:02;5.13;;;2.10;;
20908;SDS011;10614;53.198;6.570;2023-07-31T03:55:04;3.65;;;2.08;;
20908;SDS011;10614;53.198;6.570;2023-07-31T03:57:06;4.30;;;2.30;;
20908;SDS011;10614;53.198;6.570;2023-07-31T03:59:08;3.53;;;2.17;;
20908;SDS011;10614;53.198;6.570;2023-07-31T04:01:10;3.70;;;2.10;;
20908;SDS011;10614;53.198;6.570;2023-07-31T04:03:12;3.50;;;2.10;;
20908;SDS011;10614;53.198;6.570;2023-07-31T04:05:13;4.38;;;2.38;;
20908;SDS011;10614;53.198;6.570;2023-07-31T04:07:14;5.38;;;2.67;;
20908;SDS011;10614;53.198;6.570;2023-07-31T04:09:20;4.38;;;2.35;;
20908;SDS011;10614;53.198;6.570;2023-07-31T04:11:22;4.22;;;2.65;;
20908;SDS011;10614;53.198;6.570;2023-07-31T04:13:24;6.35;;;2.35;;
20908;SDS011;10614;53.198;6.570;2023-07-31T04:15:27;4.82;;;2.10;;
20908;SDS011;10614;53.198;6.570;2023-07-31T04:17:29;4.53;;;2.72;;
20908;SDS011;10614;53.198;6.570;2023-07-31T04:19:31;3.40;;;2.50;;
20908;SDS011;10614;53.198;6.570;2023-07-31T04:21:33;7.07;;;2.92;;
20908;SDS011;10614;53.198;6.570;2023-07-31T04:23:38;4.00;;;2.38;;
20908;SDS011;10614;53.198;6.570;2023-07-31T04:25:43;5.45;;;2.17;;
20908;SDS011;10614;53.198;6.570;2023-07-31T04:27:44;4.90;;;2.60;;
20908;SDS011;10614;53.198;6.570;2023-07-31T04:29:45;3.92;;;2.17;;
20908;SDS011;10614;53.198;6.570;2023-07-31T04:31:47;4.45;;;2.47;;
20908;SDS011;10614;53.198;6.570;2023-07-31T04:33:49;4.50;;;2.40;;
20908;SDS011;10614;53.198;6.570;2023-07-31T04:35:51;3.70;;;2.47;;
20908;SDS011;10614;53.198;6.570;2023-07-31T04:37:55;4.40;;;2.25;;
20908;SDS011;10614;53.198;6.570;2023-07-31T04:40:01;4.07;;;1.98;;
20908;SDS011;10614;53.198;6.570;2023-07-31T04:42:04;3.63;;;2.10;;
20908;SDS011;10614;53.198;6.570;2023-07-31T04:44:06;3.15;;;2.13;;
20908;SDS011;10614;53.198;6.570;2023-07-31T04:46:08;3.33;;;1.75;;
20908;SDS011;10614;53.198;6.570;2023-07-31T04:48:10;3.60;;;2.00;;
20908;SDS011;10614;53.198;6.570;2023-07-31T04:50:12;3.65;;;2.17;;
20908;SDS011;10614;53.198;6.570;2023-07-31T04:52:14;3.15;;;2.20;;
20908;SDS011;10614;53.198;6.570;2023-07-31T04:54:16;4.97;;;2.70;;
20908;SDS011;10614;53.198;6.570;2023-07-31T04:56:17;4.93;;;2.72;;
20908;SDS011;10614;53.198;6.570;2023-07-31T04:58:21;4.57;;;2.58;;
20908;SDS011;10614;53.198;6.570;2023-07-31T05:00:22;2.75;;;2.17;;
20908;SDS011;10614;53.198;6.570;2023-07-31T05:02:25;4.55;;;2.15;;
20908;SDS011;10614;53.198;6.570;2023-07-31T05:04:27;3.30;;;2.00;;
20908;SDS011;10614;53.198;6.570;2023-07-31T05:06:27;1.75;;;1.63;;
20908;SDS011;10614;53.198;6.570;2023-07-31T05:08:29;3.92;;;1.80;;
20908;SDS011;10614;53.198;6.570;2023-07-31T05:10:31;2.45;;;1.52;;
20908;SDS011;10614;53.198;6.570;2023-07-31T05:12:33;2.08;;;1.40;;
20908;SDS011;10614;53.198;6.570;2023-07-31T05:14:36;3.15;;;1.60;;
20908;SDS011;10614;53.198;6.570;2023-07-31T05:16:39;2.70;;;1.40;;
20908;SDS011;10614;53.198;6.570;2023-07-31T05:18:41;1.15;;;0.80;;
20908;SDS011;10614;53.198;6.570;2023-07-31T05:20:46;1.38;;;1.10;;
20908;SDS011;10614;53.198;6.570;2023-07-31T05:22:48;2.22;;;1.10;;
20908;SDS011;10614;53.198;6.570;2023-07-31T05:24:53;1.30;;;0.93;;
20908;SDS011;10614;53.198;6.570;2023-07-31T05:26:55;1.55;;;1.00;;
20908;SDS011;10614;53.198;6.570;2023-07-31T05:28:57;3.33;;;1.15;;
20908;SDS011;10614;53.198;6.570;2023-07-31T05:31:01;1.63;;;1.08;;
20908;SDS011;10614;53.198;6.570;2023-07-31T05:33:04;1.23;;;0.97;;
20908;SDS011;10614;53.198;6.570;2023-07-31T05:35:13;1.80;;;1.08;;
20908;SDS011;10614;53.198;6.570;2023-07-31T05:37:14;3.20;;;1.50;;
20908;SDS011;10614;53.198;6.570;2023-07-31T05:39:16;3.13;;;1.50;;
20908;SDS011;10614;53.198;6.570;2023-07-31T05:41:19;2.60;;;1.67;;
20908;SDS011;10614;53.198;6.570;2023-07-31T05:43:21;3.47;;;1.40;;
20908;SDS011;10614;53.198;6.570;2023-07-31T05:45:23;2.55;;;1.50;;
20908;SDS011;10614;53.198;6.570;2023-07-31T05:47:25;4.97;;;2.00;;
20908;SDS011;10614;53.198;6.570;2023-07-31T05:49:27;4.22;;;1.85;;
20908;SDS011;10614;53.198;6.570;2023-07-31T05:51:29;3.17;;;1.98;;
20908;SDS011;10614;53.198;6.570;2023-07-31T05:53:30;3.40;;;2.08;;
20908;SDS011;10614;53.198;6.570;2023-07-31T05:55:32;4.57;;;2.47;;
20908;SDS011;10614;53.198;6.570;2023-07-31T05:57:34;5.03;;;2.15;;
20908;SDS011;10614;53.198;6.570;2023-07-31T05:59:36;5.05;;;2.40;;
20908;SDS011;10614;53.198;6.570;2023-07-31T06:01:38;4.55;;;2.50;;
20908;SDS011;10614;53.198;6.570;2023-07-31T06:03:41;4.40;;;2.83;;
20908;SDS011;10614;53.198;6.570;2023-07-31T06:05:43;5.75;;;2.30;;
20908;SDS011;10614;53.198;6.570;2023-07-31T06:07:44;8.10;;;3.47;;
20908;SDS011;10614;53.198;6.570;2023-07-31T06:09:46;6.28;;;3.25;;
20908;SDS011;10614;53.198;6.570;2023-07-31T06:11:50;5.72;;;3.15;;
20908;SDS011;10614;53.198;6.570;2023-07-31T06:13:53;5.10;;;3.05;;
20908;SDS011;10614;53.198;6.570;2023-07-31T06:15:55;5.10;;;2.78;;
20908;SDS011;10614;53.198;6.570;2023-07-31T06:17:57;6.95;;;2.83;;
20908;SDS011;10614;53.198;6.570;2023-07-31T06:20:03;8.10;;;3.67;;
20908;SDS011;10614;53.198;6.570;2023-07-31T06:22:07;9.15;;;3.90;;
20908;SDS011;10614;53.198;6.570;2023-07-31T06:24:09;12.20;;;4.80;;
20908;SDS011;10614;53.198;6.570;2023-07-31T06:26:12;12.57;;;5.03;;
20908;SDS011;10614;53.198;6.570;2023-07-31T06:28:14;10.25;;;5.05;;
20908;SDS011;10614;53.198;6.570;2023-07-31T06:30:16;15.02;;;5.72;;
20908;SDS011;10614;53.198;6.570;2023-07-31T06:32:18;17.90;;;6.22;;
20908;SDS011;10614;53.198;6.570;2023-07-31T06:34:21;15.27;;;6.32;;
20908;SDS011;10614;53.198;6.570;2023-07-31T06:36:24;22.88;;;7.18;;
20908;SDS011;10614;53.198;6.570;2023-07-31T06:38:26;18.90;;;6.93;;
20908;SDS011;10614;53.198;6.570;2023-07-31T06:40:30;31.02;;;9.07;;
20908;SDS011;10614;53.198;6.570;2023-07-31T06:42:31;30.02;;;9.13;;
20908;SDS011;10614;53.198;6.570;2023-07-31T06:44:33;24.55;;;9.82;;
20908;SDS011;10614;53.198;6.570;2023-07-31T06:46:35;26.50;;;9.98;;
20908;SDS011;10614;53.198;6.570;2023-07-31T06:48:39;31.05;;;10.73;;
20908;SDS011;10614;53.198;6.570;2023-07-31T06:50:44;30.33;;;10.55;;
20908;SDS011;10614;53.198;6.570;2023-07-31T06:52:46;29.50;;;11.05;;
20908;SDS011;10614;53.198;6.570;2023-07-31T06:55:00;33.70;;;10.52;;
20908;SDS011;10614;53.198;6.570;2023-07-31T06:57:03;27.15;;;10.52;;
20908;SDS011;10614;53.198;6.570;2023-07-31T06:59:05;39.90;;;11.68;;
20908;SDS011;10614;53.198;6.570;2023-07-31T07:01:08;32.08;;;10.57;;
20908;SDS011;10614;53.198;6.570;2023-07-31T07:03:12;26.20;;;9.32;;
20908;SDS011;10614;53.198;6.570;2023-07-31T07:05:23;36.35;;;11.48;;
20908;SDS011;10614;53.198;6.570;2023-07-31T07:07:26;28.75;;;9.75;;
20908;SDS011;10614;53.198;6.570;2023-07-31T07:09:29;32.50;;;10.25;;
20908;SDS011;10614;53.198;6.570;2023-07-31T07:11:32;28.13;;;9.40;;
20908;SDS011;10614;53.198;6.570;2023-07-31T07:13:34;26.85;;;9.85;;
20908;SDS011;10614;53.198;6.570;2023-07-31T07:15:37;28.20;;;9.75;;
20908;SDS011;10614;53.198;6.570;2023-07-31T07:17:39;38.85;;;10.93;;
20908;SDS011;10614;53.198;6.570;2023-07-31T07:19:40;39.60;;;11.50;;
20908;SDS011;10614;53.198;6.570;2023-07-31T07:21:45;39.10;;;11.55;;
20908;SDS011;10614;53.198;6.570;2023-07-31T07:23:47;24.92;;;9.88;;
20908;SDS011;10614;53.198;6.570;2023-07-31T07:25:50;33.08;;;10.57;;
20908;SDS011;10614;53.198;6.570;2023-07-31T07:27:53;41.17;;;12.80;;
20908;SDS011;10614;53.198;6.570;2023-07-31T07:29:56;30.63;;;12.30;;
20908;SDS011;10614;53.198;6.570;2023-07-31T07:31:57;35.42;;;12.88;;
20908;SDS011;10614;53.198;6.570;2023-07-31T07:34:00;34.35;;;12.63;;
20908;SDS011;10614;53.198;6.570;2023-07-31T07:36:04;32.97;;;12.07;;
20908;SDS011;10614;53.198;6.570;2023-07-31T07:38:09;29.25;;;12.48;;
20908;SDS011;10614;53.198;6.570;2023-07-31T07:40:11;30.23;;;12.25;;
20908;SDS011;10614;53.198;6.570;2023-07-31T07:42:16;32.40;;;13.18;;
20908;SDS011;10614;53.198;6.570;2023-07-31T07:44:19;31.05;;;13.05;;
20908;SDS011;10614;53.198;6.570;2023-07-31T07:46:21;31.40;;;11.43;;
20908;SDS011;10614;53.198;6.570;2023-07-31T07:48:24;27.02;;;10.27;;
20908;SDS011;10614;53.198;6.570;2023-07-31T07:50:26;22.20;;;8.98;;
20908;SDS011;10614;53.198;6.570;2023-07-31T07:52:28;16.85;;;7.68;;
20908;SDS011;10614;53.198;6.570;2023-07-31T07:54:30;18.08;;;6.53;;
20908;SDS011;10614;53.198;6.570;2023-07-31T07:56:32;14.25;;;5.45;;
20908;SDS011;10614;53.198;6.570;2023-07-31T07:58:37;7.57;;;3.88;;
20908;SDS011;10614;53.198;6.570;2023-07-31T08:00:39;9.30;;;3.60;;
20908;SDS011;10614;53.198;6.570;2023-07-31T08:02:41;6.75;;;2.90;;
20908;SDS011;10614;53.198;6.570;2023-07-31T08:04:42;8.57;;;3.28;;
20908;SDS011;10614;53.198;6.570;2023-07-31T08:06:45;5.75;;;3.00;;
20908;SDS011;10614;53.198;6.570;2023-07-31T08:08:49;7.30;;;3.22;;
20908;SDS011;10614;53.198;6.570;2023-07-31T08:10:51;6.65;;;3.10;;
20908;SDS011;10614;53.198;6.570;2023-07-31T08:12:53;8.32;;;3.30;;
20908;SDS011;10614;53.198;6.570;2023-07-31T08:14:57;7.13;;;3.08;;
20908;SDS011;10614;53.198;6.570;2023-07-31T08:17:00;4.38;;;2.78;;
20908;SDS011;10614;53.198;6.570;2023-07-31T08:19:02;5.88;;;2.90;;
20908;SDS011;10614;53.198;6.570;2023-07-31T08:21:03;5.97;;;2.90;;
20908;SDS011;10614;53.198;6.570;2023-07-31T08:23:06;6.45;;;3.08;;
20908;SDS011;10614;53.198;6.570;2023-07-31T08:25:08;6.13;;;3.20;;
20908;SDS011;10614;53.198;6.570;2023-07-31T08:27:10;5.28;;;2.88;;
20908;SDS011;10614;53.198;6.570;2023-07-31T08:29:12;7.18;;;3.20;;
20908;SDS011;10614;53.198;6.570;2023-07-31T08:31:15;6.70;;;3.35;;
20908;SDS011;10614;53.198;6.570;2023-07-31T08:33:20;7.38;;;2.95;;
20908;SDS011;10614;53.198;6.570;2023-07-31T08:35:24;5.85;;;3.53;;
20908;SDS011;10614;53.198;6.570;2023-07-31T08:37:47;5.97;;;3.20;;
20908;SDS011;10614;53.198;6.570;2023-07-31T08:42:56;5.18;;;2.60;;
20908;SDS011;10614;53.198;6.570;2023-07-31T08:45:19;3.90;;;2.13;;
20908;SDS011;10614;53.198;6.570;2023-07-31T08:47:23;4.25;;;2.25;;
20908;SDS011;10614;53.198;6.570;2023-07-31T08:49:25;4.27;;;2.17;;
20908;SDS011;10614;53.198;6.570;2023-07-31T08:51:32;6.40;;;2.30;;
20908;SDS011;10614;53.198;6.570;2023-07-31T08:53:37;3.78;;;1.88;;
20908;SDS011;10614;53.198;6.570;2023-07-31T08:55:39;3.08;;;1.83;;
20908;SDS011;10614;53.198;6.570;2023-07-31T09:20:17;4.47;;;1.63;;
20908;SDS011;10614;53.198;6.570;2023-07-31T09:22:41;2.60;;;1.48;;
20908;SDS011;10614;53.198;6.570;2023-07-31T09:25:16;1.85;;;1.30;;
20908;SDS011;10614;53.198;6.570;2023-07-31T09:27:45;2.10;;;1.40;;
20908;SDS011;10614;53.198;6.570;2023-07-31T09:30:06;2.28;;;1.33;;
20908;SDS011;10614;53.198;6.570;2023-07-31T09:32:31;2.95;;;1.40;;
20908;SDS011;10614;53.198;6.570;2023-07-31T09:34:53;2.45;;;1.60;;
20908;SDS011;10614;53.198;6.570;2023-07-31T09:42:24;1.95;;;1.30;;
20908;SDS011;10614;53.198;6.570;2023-07-31T09:44:38;4.40;;;1.60;;
20908;SDS011;10614;53.198;6.570;2023-07-31T09:47:04;1.55;;;1.20;;
20908;SDS011;10614;53.198;6.570;2023-07-31T09:49:24;3.53;;;1.10;;
20908;SDS011;10614;53.198;6.570;2023-07-31T09:51:49;1.85;;;0.98;;
20908;SDS011;10614;53.198;6.570;2023-07-31T09:54:13;3.25;;;1.17;;
20908;SDS011;10614;53.198;6.570;2023-07-31T11:18:04;2.38;;;1.15;;
20908;SDS011;10614;53.198;6.570;2023-07-31T11:20:08;2.42;;;1.15;;
20908;SDS011;10614;53.198;6.570;2023-07-31T11:22:10;3.65;;;1.80;;
20908;SDS011;10614;53.198;6.570;2023-07-31T11:24:13;3.40;;;1.75;;
20908;SDS011;10614;53.198;6.570;2023-07-31T11:26:14;4.45;;;1.63;;
20908;SDS011;10614;53.198;6.570;2023-07-31T11:28:16;3.10;;;1.70;;
20908;SDS011;10614;53.198;6.570;2023-07-31T11:30:19;2.97;;;1.50;;
20908;SDS011;10614;53.198;6.570;2023-07-31T11:32:20;2.42;;;1.60;;
20908;SDS011;10614;53.198;6.570;2023-07-31T11:34:25;4.85;;;1.83;;
20908;SDS011;10614;53.198;6.570;2023-07-31T12:11:01;5.93;;;2.83;;
20908;SDS011;10614;53.198;6.570;2023-07-31T12:13:05;5.80;;;2.55;;
20908;SDS011;10614;53.198;6.570;2023-07-31T12:15:14;6.40;;;2.72;;
20908;SDS011;10614;53.198;6.570;2023-07-31T12:17:16;6.90;;;2.60;;
20908;SDS011;10614;53.198;6.570;2023-07-31T12:43:17;9.73;;;2.75;;
20908;SDS011;10614;53.198;6.570;2023-07-31T12:48:27;7.45;;;2.88;;
20908;SDS011;10614;53.198;6.570;2023-07-31T12:50:29;5.00;;;2.53;;
20908;SDS011;10614;53.198;6.570;2023-07-31T12:52:31;5.00;;;2.50;;
20908;SDS011;10614;53.198;6.570;2023-07-31T13:10:42;6.80;;;3.20;;
20908;SDS011;10614;53.198;6.570;2023-07-31T13:12:44;9.75;;;3.53;;
20908;SDS011;10614;53.198;6.570;2023-07-31T13:14:45;12.57;;;3.75;;
20908;SDS011;10614;53.198;6.570;2023-07-31T13:16:47;10.77;;;3.78;;
20908;SDS011;10614;53.198;6.570;2023-07-31T13:18:49;9.73;;;3.70;;
20908;SDS011;10614;53.198;6.570;2023-07-31T13:20:53;10.45;;;3.85;;
20908;SDS011;10614;53.198;6.570;2023-07-31T13:22:55;10.38;;;4.10;;
20908;SDS011;10614;53.198;6.570;2023-07-31T13:24:57;12.88;;;4.28;;
20908;SDS011;10614;53.198;6.570;2023-07-31T13:26:59;11.57;;;3.92;;
20908;SDS011;10614;53.198;6.570;2023-07-31T13:29:01;12.23;;;4.47;;
20908;SDS011;10614;53.198;6.570;2023-07-31T13:31:03;11.65;;;4.30;;
20908;SDS011;10614;53.198;6.570;2023-07-31T13:33:05;10.68;;;4.28;;
20908;SDS011;10614;53.198;6.570;2023-07-31T13:35:07;12.75;;;4.13;;
20908;SDS011;10614;53.198;6.570;2023-07-31T13:37:11;11.77;;;4.15;;
20908;SDS011;10614;53.198;6.570;2023-07-31T13:39:13;11.73;;;4.20;;
20908;SDS011;10614;53.198;6.570;2023-07-31T13:41:15;11.82;;;4.30;;
20908;SDS011;10614;53.198;6.570;2023-07-31T13:43:20;9.98;;;4.63;;
20908;SDS011;10614;53.198;6.570;2023-07-31T13:45:23;10.93;;;4.00;;
20908;SDS011;10614;53.198;6.570;2023-07-31T13:47:25;13.32;;;4.60;;
20908;SDS011;10614;53.198;6.570;2023-07-31T13:49:27;10.48;;;4.47;;
20908;SDS011;10614;53.198;6.570;2023-07-31T13:51:30;13.30;;;4.63;;
20908;SDS011;10614;53.198;6.570;2023-07-31T13:53:32;10.15;;;3.88;;
20908;SDS011;10614;53.198;6.570;2023-07-31T13:55:34;12.00;;;4.88;;
20908;SDS011;10614;53.198;6.570;2023-07-31T14:09:21;10.52;;;3.80;;
20908;SDS011;10614;53.198;6.570;2023-07-31T14:11:25;10.18;;;3.67;;
20908;SDS011;10614;53.198;6.570;2023-07-31T14:17:49;7.38;;;3.47;;
20908;SDS011;10614;53.198;6.570;2023-07-31T14:21:16;9.77;;;3.60;;
20908;SDS011;10614;53.198;6.570;2023-07-31T15:38:48;9.30;;;4.55;;
20908;SDS011;10614;53.198;6.570;2023-07-31T16:42:16;10.55;;;3.90;;
20908;SDS011;10614;53.198;6.570;2023-07-31T16:44:18;10.02;;;3.90;;
20908;SDS011;10614;53.198;6.570;2023-07-31T16:46:20;10.60;;;4.10;;
20908;SDS011;10614;53.198;6.570;2023-07-31T16:48:22;9.15;;;3.42;;
20908;SDS011;10614;53.198;6.570;2023-07-31T16:50:24;9.00;;;3.47;;
20908;SDS011;10614;53.198;6.570;2023-07-31T16:52:26;9.25;;;4.00;;
20908;SDS011;10614;53.198;6.570;2023-07-31T19:45:14;11.73;;;6.13;;
20908;SDS011;10614;53.198;6.570;2023-07-31T19:47:16;8.27;;;5.00;;
20908;SDS011;10614;53.198;6.570;2023-07-31T19:49:21;7.75;;;4.97;;
20908;SDS011;10614;53.198;6.570;2023-07-31T19:51:23;8.23;;;5.05;;
20908;SDS011;10614;53.198;6.570;2023-07-31T19:53:25;7.70;;;5.35;;
20908;SDS011;10614;53.198;6.570;2023-07-31T19:55:26;11.20;;;5.95;;
20908;SDS011;10614;53.198;6.570;2023-07-31T19:57:29;11.70;;;5.75;;
20908;SDS011;10614;53.198;6.570;2023-07-31T19:59:31;11.18;;;6.05;;
20908;SDS011;10614;53.198;6.570;2023-07-31T20:01:35;9.70;;;5.60;;
20908;SDS011;10614;53.198;6.570;2023-07-31T20:03:36;11.10;;;5.57;;
20908;SDS011;10614;53.198;6.570;2023-07-31T20:25:11;13.98;;;6.78;;
20908;SDS011;10614;53.198;6.570;2023-07-31T20:27:14;17.13;;;7.40;;
20908;SDS011;10614;53.198;6.570;2023-07-31T20:29:20;15.45;;;7.50;;
20908;SDS011;10614;53.198;6.570;2023-07-31T20:31:22;16.27;;;8.35;;
20908;SDS011;10614;53.198;6.570;2023-07-31T20:33:24;21.48;;;8.30;;
20908;SDS011;10614;53.198;6.570;2023-07-31T20:35:26;18.67;;;8.18;;
20908;SDS011;10614;53.198;6.570;2023-07-31T20:37:28;14.18;;;8.40;;
20908;SDS011;10614;53.198;6.570;2023-07-31T20:39:30;23.13;;;9.10;;
20908;SDS011;10614;53.198;6.570;2023-07-31T20:41:33;21.65;;;9.93;;
20908;SDS011;10614;53.198;6.570;2023-07-31T20:43:35;17.95;;;9.80;;
20908;SDS011;10614;53.198;6.570;2023-07-31T20:45:37;18.08;;;9.20;;
20908;SDS011;10614;53.198;6.570;2023-07-31T20:47:40;19.10;;;9.20;;
20908;SDS011;10614;53.198;6.570;2023-07-31T20:49:44;22.23;;;9.95;;
20908;SDS011;10614;53.198;6.570;2023-07-31T20:51:46;20.08;;;9.82;;
20908;SDS011;10614;53.198;6.570;2023-07-31T20:53:48;14.88;;;9.13;;
20908;SDS011;10614;53.198;6.570;2023-07-31T20:55:52;22.17;;;10.20;;
20908;SDS011;10614;53.198;6.570;2023-07-31T20:57:55;16.95;;;8.95;;
20908;SDS011;10614;53.198;6.570;2023-07-31T20:59:57;14.98;;;9.10;;
20908;SDS011;10614;53.198;6.570;2023-07-31T21:01:59;17.23;;;9.73;;
20908;SDS011;10614;53.198;6.570;2023-07-31T21:04:01;23.90;;;11.00;;
20908;SDS011;10614;53.198;6.570;2023-07-31T21:06:06;18.63;;;8.73;;
20908;SDS011;10614;53.198;6.570;2023-07-31T21:08:07;17.80;;;8.27;;
20908;SDS011;10614;53.198;6.570;2023-07-31T21:10:09;17.13;;;8.02;;
20908;SDS011;10614;53.198;6.570;2023-07-31T21:12:15;15.68;;;7.72;;
20908;SDS011;10614;53.198;6.570;2023-07-31T21:43:50;13.88;;;5.10;;
20908;SDS011;10614;53.198;6.570;2023-07-31T21:47:54;16.95;;;5.75;;